sensor_id;sensor_type;location;lat;lon;timestamp;P1;durP1;ratioP1;P2;durP2;ratioP2
73296;SDS011;61524;50.938;11.396;2023-01-24T00:00:42;32.80;;;11.63;;
73296;SDS011;61524;50.938;11.396;2023-01-24T00:03:07;33.33;;;13.65;;
73296;SDS011;61524;50.938;11.396;2023-01-24T00:05:40;39.58;;;16.50;;
73296;SDS011;61524;50.938;11.396;2023-01-24T00:08:07;31.15;;;12.25;;
73296;SDS011;61524;50.938;11.396;2023-01-24T00:10:33;38.17;;;13.35;;
73296;SDS011;61524;50.938;11.396;2023-01-24T00:12:59;32.35;;;12.07;;
73296;SDS011;61524;50.938;11.396;2023-01-24T00:15:24;30.55;;;11.38;;
73296;SDS011;61524;50.938;11.396;2023-01-24T00:17:50;30.80;;;13.27;;
73296;SDS011;61524;50.938;11.396;2023-01-24T00:20:15;39.83;;;14.48;;
73296;SDS011;61524;50.938;11.396;2023-01-24T00:22:41;35.03;;;12.90;;
73296;SDS011;61524;50.938;11.396;2023-01-24T00:25:07;38.90;;;13.27;;
73296;SDS011;61524;50.938;11.396;2023-01-24T00:27:33;30.92;;;12.38;;
73296;SDS011;61524;50.938;11.396;2023-01-24T00:30:00;37.70;;;14.48;;
73296;SDS011;61524;50.938;11.396;2023-01-24T00:32:30;29.05;;;11.63;;
73296;SDS011;61524;50.938;11.396;2023-01-24T00:34:56;39.05;;;14.65;;
73296;SDS011;61524;50.938;11.396;2023-01-24T00:37:22;27.30;;;10.35;;
73296;SDS011;61524;50.938;11.396;2023-01-24T00:39:48;34.05;;;11.85;;
73296;SDS011;61524;50.938;11.396;2023-01-24T00:42:13;24.75;;;11.20;;
73296;SDS011;61524;50.938;11.396;2023-01-24T00:44:39;35.95;;;13.20;;
73296;SDS011;61524;50.938;11.396;2023-01-24T00:47:04;36.40;;;13.70;;
73296;SDS011;61524;50.938;11.396;2023-01-24T00:49:30;35.63;;;13.13;;
73296;SDS011;61524;50.938;11.396;2023-01-24T00:51:55;29.48;;;11.73;;
73296;SDS011;61524;50.938;11.396;2023-01-24T00:54:21;31.50;;;13.40;;
73296;SDS011;61524;50.938;11.396;2023-01-24T00:56:46;35.53;;;13.80;;
73296;SDS011;61524;50.938;11.396;2023-01-24T00:59:11;33.38;;;13.43;;
73296;SDS011;61524;50.938;11.396;2023-01-24T01:01:37;28.20;;;11.15;;
73296;SDS011;61524;50.938;11.396;2023-01-24T01:04:02;31.33;;;11.93;;
73296;SDS011;61524;50.938;11.396;2023-01-24T01:06:28;33.83;;;13.18;;
73296;SDS011;61524;50.938;11.396;2023-01-24T01:08:53;36.50;;;14.00;;
73296;SDS011;61524;50.938;11.396;2023-01-24T01:11:19;36.15;;;13.60;;
73296;SDS011;61524;50.938;11.396;2023-01-24T01:13:45;29.15;;;11.32;;
73296;SDS011;61524;50.938;11.396;2023-01-24T01:16:15;30.80;;;12.77;;
73296;SDS011;61524;50.938;11.396;2023-01-24T01:18:44;33.97;;;13.52;;
73296;SDS011;61524;50.938;11.396;2023-01-24T01:21:14;33.53;;;12.77;;
73296;SDS011;61524;50.938;11.396;2023-01-24T01:23:42;22.17;;;8.90;;
73296;SDS011;61524;50.938;11.396;2023-01-24T01:26:08;35.38;;;14.27;;
73296;SDS011;61524;50.938;11.396;2023-01-24T01:28:37;36.42;;;14.40;;
73296;SDS011;61524;50.938;11.396;2023-01-24T01:31:03;26.23;;;10.35;;
73296;SDS011;61524;50.938;11.396;2023-01-24T01:33:29;29.15;;;11.13;;
73296;SDS011;61524;50.938;11.396;2023-01-24T01:35:54;32.85;;;12.93;;
73296;SDS011;61524;50.938;11.396;2023-01-24T01:38:20;30.25;;;12.05;;
73296;SDS011;61524;50.938;11.396;2023-01-24T01:40:45;32.20;;;13.38;;
73296;SDS011;61524;50.938;11.396;2023-01-24T01:43:15;31.58;;;12.88;;
73296;SDS011;61524;50.938;11.396;2023-01-24T01:45:46;25.70;;;10.88;;
73296;SDS011;61524;50.938;11.396;2023-01-24T01:50:46;27.38;;;10.95;;
73296;SDS011;61524;50.938;11.396;2023-01-24T01:53:21;23.17;;;10.57;;
73296;SDS011;61524;50.938;11.396;2023-01-24T01:55:49;22.48;;;8.25;;
73296;SDS011;61524;50.938;11.396;2023-01-24T01:58:21;22.23;;;9.88;;
73296;SDS011;61524;50.938;11.396;2023-01-24T02:00:47;22.77;;;11.60;;
73296;SDS011;61524;50.938;11.396;2023-01-24T02:03:15;26.15;;;9.73;;
73296;SDS011;61524;50.938;11.396;2023-01-24T02:06:05;20.02;;;8.77;;
73296;SDS011;61524;50.938;11.396;2023-01-24T02:08:33;22.67;;;9.10;;
73296;SDS011;61524;50.938;11.396;2023-01-24T02:10:59;25.90;;;11.68;;
73296;SDS011;61524;50.938;11.396;2023-01-24T02:13:44;24.20;;;9.93;;
73296;SDS011;61524;50.938;11.396;2023-01-24T02:16:11;25.45;;;11.63;;
73296;SDS011;61524;50.938;11.396;2023-01-24T02:18:40;24.75;;;9.70;;
73296;SDS011;61524;50.938;11.396;2023-01-24T02:21:09;28.33;;;10.85;;
73296;SDS011;61524;50.938;11.396;2023-01-24T02:26:21;25.13;;;10.25;;
73296;SDS011;61524;50.938;11.396;2023-01-24T02:31:20;20.05;;;9.93;;
73296;SDS011;61524;50.938;11.396;2023-01-24T02:33:45;27.98;;;10.55;;
73296;SDS011;61524;50.938;11.396;2023-01-24T02:38:55;29.08;;;10.68;;
73296;SDS011;61524;50.938;11.396;2023-01-24T02:41:27;25.17;;;10.93;;
73296;SDS011;61524;50.938;11.396;2023-01-24T02:43:55;23.17;;;9.88;;
73296;SDS011;61524;50.938;11.396;2023-01-24T02:46:28;18.40;;;7.90;;
73296;SDS011;61524;50.938;11.396;2023-01-24T02:48:54;16.10;;;6.10;;
73296;SDS011;61524;50.938;11.396;2023-01-24T02:51:20;18.08;;;7.43;;
73296;SDS011;61524;50.938;11.396;2023-01-24T02:54:04;16.17;;;7.50;;
73296;SDS011;61524;50.938;11.396;2023-01-24T02:56:29;19.02;;;9.25;;
73296;SDS011;61524;50.938;11.396;2023-01-24T02:59:13;17.38;;;7.88;;
73296;SDS011;61524;50.938;11.396;2023-01-24T03:01:38;13.07;;;6.20;;
73296;SDS011;61524;50.938;11.396;2023-01-24T03:04:04;14.95;;;7.88;;
73296;SDS011;61524;50.938;11.396;2023-01-24T03:06:30;16.08;;;6.45;;
73296;SDS011;61524;50.938;11.396;2023-01-24T03:08:55;12.20;;;5.88;;
73296;SDS011;61524;50.938;11.396;2023-01-24T03:11:20;15.27;;;6.45;;
73296;SDS011;61524;50.938;11.396;2023-01-24T03:13:46;16.52;;;8.02;;
73296;SDS011;61524;50.938;11.396;2023-01-24T03:16:30;16.65;;;7.03;;
73296;SDS011;61524;50.938;11.396;2023-01-24T03:19:14;16.13;;;8.07;;
73296;SDS011;61524;50.938;11.396;2023-01-24T03:21:58;20.52;;;7.85;;
73296;SDS011;61524;50.938;11.396;2023-01-24T03:24:42;16.27;;;6.80;;
73296;SDS011;61524;50.938;11.396;2023-01-24T03:27:26;15.43;;;6.53;;
73296;SDS011;61524;50.938;11.396;2023-01-24T03:30:10;14.68;;;7.30;;
73296;SDS011;61524;50.938;11.396;2023-01-24T03:32:58;15.60;;;7.78;;
73296;SDS011;61524;50.938;11.396;2023-01-24T03:35:43;15.90;;;7.78;;
73296;SDS011;61524;50.938;11.396;2023-01-24T03:38:18;15.75;;;7.75;;
73296;SDS011;61524;50.938;11.396;2023-01-24T03:41:03;19.88;;;9.10;;
73296;SDS011;61524;50.938;11.396;2023-01-24T03:43:28;19.77;;;8.32;;
73296;SDS011;61524;50.938;11.396;2023-01-24T03:45:54;20.05;;;8.95;;
73296;SDS011;61524;50.938;11.396;2023-01-24T03:48:26;19.48;;;8.68;;
73296;SDS011;61524;50.938;11.396;2023-01-24T03:50:59;16.55;;;9.07;;
73296;SDS011;61524;50.938;11.396;2023-01-24T03:53:43;20.02;;;8.55;;
73296;SDS011;61524;50.938;11.396;2023-01-24T03:56:09;17.50;;;8.13;;
73296;SDS011;61524;50.938;11.396;2023-01-24T03:58:34;21.50;;;9.02;;
73296;SDS011;61524;50.938;11.396;2023-01-24T04:01:00;22.40;;;8.52;;
73296;SDS011;61524;50.938;11.396;2023-01-24T04:03:26;15.52;;;8.13;;
73296;SDS011;61524;50.938;11.396;2023-01-24T04:05:51;20.90;;;7.53;;
73296;SDS011;61524;50.938;11.396;2023-01-24T04:08:17;17.27;;;7.82;;
73296;SDS011;61524;50.938;11.396;2023-01-24T04:10:43;19.25;;;8.70;;
73296;SDS011;61524;50.938;11.396;2023-01-24T04:13:09;13.93;;;6.97;;
73296;SDS011;61524;50.938;11.396;2023-01-24T04:15:35;17.42;;;9.20;;
73296;SDS011;61524;50.938;11.396;2023-01-24T04:18:01;16.23;;;7.57;;
73296;SDS011;61524;50.938;11.396;2023-01-24T04:20:30;22.50;;;9.68;;
73296;SDS011;61524;50.938;11.396;2023-01-24T04:23:01;25.20;;;11.18;;
73296;SDS011;61524;50.938;11.396;2023-01-24T04:25:27;22.13;;;9.43;;
73296;SDS011;61524;50.938;11.396;2023-01-24T04:27:53;16.35;;;6.70;;
73296;SDS011;61524;50.938;11.396;2023-01-24T04:30:18;16.00;;;7.30;;
73296;SDS011;61524;50.938;11.396;2023-01-24T04:32:44;13.75;;;6.82;;
73296;SDS011;61524;50.938;11.396;2023-01-24T04:35:09;14.10;;;7.15;;
73296;SDS011;61524;50.938;11.396;2023-01-24T04:37:41;14.52;;;5.97;;
73296;SDS011;61524;50.938;11.396;2023-01-24T04:40:07;17.73;;;8.05;;
73296;SDS011;61524;50.938;11.396;2023-01-24T04:42:33;16.05;;;7.47;;
73296;SDS011;61524;50.938;11.396;2023-01-24T04:44:58;17.75;;;8.85;;
73296;SDS011;61524;50.938;11.396;2023-01-24T04:47:24;14.90;;;6.43;;
73296;SDS011;61524;50.938;11.396;2023-01-24T04:49:49;16.58;;;8.38;;
73296;SDS011;61524;50.938;11.396;2023-01-24T04:52:14;18.35;;;7.15;;
73296;SDS011;61524;50.938;11.396;2023-01-24T04:54:40;16.08;;;8.05;;
73296;SDS011;61524;50.938;11.396;2023-01-24T04:57:06;12.48;;;6.65;;
73296;SDS011;61524;50.938;11.396;2023-01-24T04:59:32;14.20;;;6.10;;
73296;SDS011;61524;50.938;11.396;2023-01-24T05:01:57;16.80;;;7.18;;
73296;SDS011;61524;50.938;11.396;2023-01-24T05:04:23;17.38;;;6.70;;
73296;SDS011;61524;50.938;11.396;2023-01-24T05:06:48;18.05;;;7.15;;
73296;SDS011;61524;50.938;11.396;2023-01-24T05:09:14;14.60;;;6.75;;
73296;SDS011;61524;50.938;11.396;2023-01-24T05:11:39;13.30;;;5.97;;
73296;SDS011;61524;50.938;11.396;2023-01-24T05:14:07;15.98;;;7.35;;
73296;SDS011;61524;50.938;11.396;2023-01-24T05:16:33;16.73;;;7.38;;
73296;SDS011;61524;50.938;11.396;2023-01-24T05:18:59;20.02;;;9.30;;
73296;SDS011;61524;50.938;11.396;2023-01-24T05:21:24;19.95;;;8.30;;
73296;SDS011;61524;50.938;11.396;2023-01-24T05:23:51;17.85;;;8.48;;
73296;SDS011;61524;50.938;11.396;2023-01-24T05:28:43;16.88;;;6.80;;
73296;SDS011;61524;50.938;11.396;2023-01-24T05:31:09;18.63;;;8.07;;
73296;SDS011;61524;50.938;11.396;2023-01-24T05:33:35;19.02;;;8.52;;
73296;SDS011;61524;50.938;11.396;2023-01-24T05:36:08;19.30;;;8.07;;
73296;SDS011;61524;50.938;11.396;2023-01-24T05:38:36;17.85;;;8.63;;
73296;SDS011;61524;50.938;11.396;2023-01-24T05:41:03;19.52;;;7.60;;
73296;SDS011;61524;50.938;11.396;2023-01-24T05:43:31;19.67;;;7.30;;
73296;SDS011;61524;50.938;11.396;2023-01-24T05:46:07;15.77;;;7.55;;
73296;SDS011;61524;50.938;11.396;2023-01-24T05:48:37;19.63;;;8.52;;
73296;SDS011;61524;50.938;11.396;2023-01-24T05:51:03;18.25;;;6.85;;
73296;SDS011;61524;50.938;11.396;2023-01-24T05:53:32;14.90;;;7.25;;
73296;SDS011;61524;50.938;11.396;2023-01-24T05:56:00;17.52;;;6.65;;
73296;SDS011;61524;50.938;11.396;2023-01-24T05:58:29;18.75;;;7.55;;
73296;SDS011;61524;50.938;11.396;2023-01-24T06:00:58;19.02;;;8.10;;
73296;SDS011;61524;50.938;11.396;2023-01-24T06:03:24;10.60;;;5.43;;
73296;SDS011;61524;50.938;11.396;2023-01-24T06:05:50;14.82;;;7.70;;
73296;SDS011;61524;50.938;11.396;2023-01-24T06:08:18;18.10;;;6.85;;
73296;SDS011;61524;50.938;11.396;2023-01-24T06:10:45;19.15;;;7.63;;
73296;SDS011;61524;50.938;11.396;2023-01-24T06:13:11;18.05;;;8.18;;
73296;SDS011;61524;50.938;11.396;2023-01-24T06:15:38;16.08;;;6.72;;
73296;SDS011;61524;50.938;11.396;2023-01-24T06:18:04;11.98;;;4.72;;
73296;SDS011;61524;50.938;11.396;2023-01-24T06:20:30;17.88;;;7.43;;
73296;SDS011;61524;50.938;11.396;2023-01-24T06:22:59;15.32;;;6.82;;
73296;SDS011;61524;50.938;11.396;2023-01-24T06:25:29;15.38;;;6.70;;
73296;SDS011;61524;50.938;11.396;2023-01-24T06:27:55;14.05;;;6.35;;
73296;SDS011;61524;50.938;11.396;2023-01-24T06:30:21;17.27;;;7.72;;
73296;SDS011;61524;50.938;11.396;2023-01-24T06:38:03;16.63;;;6.85;;
73296;SDS011;61524;50.938;11.396;2023-01-24T06:40:28;17.55;;;7.57;;
73296;SDS011;61524;50.938;11.396;2023-01-24T06:42:55;20.98;;;8.80;;
73296;SDS011;61524;50.938;11.396;2023-01-24T06:45:21;21.35;;;9.48;;
73296;SDS011;61524;50.938;11.396;2023-01-24T06:47:47;18.80;;;8.82;;
73296;SDS011;61524;50.938;11.396;2023-01-24T06:50:13;16.45;;;7.45;;
73296;SDS011;61524;50.938;11.396;2023-01-24T06:52:46;14.88;;;6.82;;
73296;SDS011;61524;50.938;11.396;2023-01-24T06:55:13;21.05;;;9.90;;
73296;SDS011;61524;50.938;11.396;2023-01-24T06:57:39;22.42;;;9.80;;
73296;SDS011;61524;50.938;11.396;2023-01-24T07:00:05;19.13;;;8.82;;
73296;SDS011;61524;50.938;11.396;2023-01-24T07:02:31;20.45;;;8.32;;
73296;SDS011;61524;50.938;11.396;2023-01-24T07:04:56;18.98;;;8.75;;
73296;SDS011;61524;50.938;11.396;2023-01-24T07:07:22;19.00;;;8.30;;
73296;SDS011;61524;50.938;11.396;2023-01-24T07:09:47;19.75;;;8.40;;
73296;SDS011;61524;50.938;11.396;2023-01-24T07:12:13;21.38;;;8.75;;
73296;SDS011;61524;50.938;11.396;2023-01-24T07:14:38;23.85;;;9.32;;
73296;SDS011;61524;50.938;11.396;2023-01-24T07:17:03;21.77;;;9.10;;
73296;SDS011;61524;50.938;11.396;2023-01-24T07:19:29;19.10;;;9.57;;
73296;SDS011;61524;50.938;11.396;2023-01-24T07:21:55;21.10;;;8.45;;
73296;SDS011;61524;50.938;11.396;2023-01-24T07:24:22;19.17;;;8.10;;
73296;SDS011;61524;50.938;11.396;2023-01-24T07:26:51;18.17;;;8.23;;
73296;SDS011;61524;50.938;11.396;2023-01-24T07:31:43;17.33;;;8.82;;
73296;SDS011;61524;50.938;11.396;2023-01-24T07:34:09;17.13;;;9.13;;
73296;SDS011;61524;50.938;11.396;2023-01-24T07:36:35;17.73;;;8.25;;
73296;SDS011;61524;50.938;11.396;2023-01-24T07:39:00;27.83;;;9.85;;
73296;SDS011;61524;50.938;11.396;2023-01-24T07:41:25;16.40;;;7.28;;
73296;SDS011;61524;50.938;11.396;2023-01-24T07:43:51;22.55;;;9.07;;
73296;SDS011;61524;50.938;11.396;2023-01-24T07:46:16;19.38;;;8.05;;
73296;SDS011;61524;50.938;11.396;2023-01-24T07:48:43;20.58;;;7.88;;
73296;SDS011;61524;50.938;11.396;2023-01-24T07:51:08;23.60;;;9.77;;
73296;SDS011;61524;50.938;11.396;2023-01-24T07:53:34;21.60;;;8.65;;
73296;SDS011;61524;50.938;11.396;2023-01-24T07:56:00;19.40;;;8.60;;
73296;SDS011;61524;50.938;11.396;2023-01-24T07:58:26;19.17;;;8.95;;
73296;SDS011;61524;50.938;11.396;2023-01-24T08:00:52;19.33;;;7.75;;
73296;SDS011;61524;50.938;11.396;2023-01-24T08:03:17;21.70;;;9.30;;
73296;SDS011;61524;50.938;11.396;2023-01-24T08:05:43;21.52;;;9.18;;
73296;SDS011;61524;50.938;11.396;2023-01-24T08:08:09;19.25;;;7.97;;
73296;SDS011;61524;50.938;11.396;2023-01-24T08:10:34;18.85;;;8.90;;
73296;SDS011;61524;50.938;11.396;2023-01-24T08:13:00;18.73;;;7.95;;
73296;SDS011;61524;50.938;11.396;2023-01-24T08:15:25;17.38;;;8.13;;
73296;SDS011;61524;50.938;11.396;2023-01-24T08:17:51;14.85;;;7.43;;
73296;SDS011;61524;50.938;11.396;2023-01-24T08:20:16;18.23;;;8.45;;
73296;SDS011;61524;50.938;11.396;2023-01-24T08:22:42;19.33;;;8.18;;
73296;SDS011;61524;50.938;11.396;2023-01-24T08:25:07;19.90;;;8.90;;
73296;SDS011;61524;50.938;11.396;2023-01-24T08:27:33;24.15;;;10.38;;
73296;SDS011;61524;50.938;11.396;2023-01-24T08:29:59;17.33;;;9.20;;
73296;SDS011;61524;50.938;11.396;2023-01-24T08:32:25;19.75;;;8.30;;
73296;SDS011;61524;50.938;11.396;2023-01-24T08:34:50;23.83;;;10.38;;
73296;SDS011;61524;50.938;11.396;2023-01-24T08:37:16;23.60;;;8.95;;
73296;SDS011;61524;50.938;11.396;2023-01-24T08:39:42;21.45;;;9.18;;
73296;SDS011;61524;50.938;11.396;2023-01-24T08:42:07;20.95;;;9.88;;
73296;SDS011;61524;50.938;11.396;2023-01-24T08:44:34;19.05;;;8.65;;
73296;SDS011;61524;50.938;11.396;2023-01-24T08:46:59;19.88;;;10.27;;
73296;SDS011;61524;50.938;11.396;2023-01-24T08:49:25;24.25;;;10.52;;
73296;SDS011;61524;50.938;11.396;2023-01-24T08:51:50;24.90;;;10.95;;
73296;SDS011;61524;50.938;11.396;2023-01-24T08:54:23;21.45;;;10.15;;
73296;SDS011;61524;50.938;11.396;2023-01-24T08:56:52;24.95;;;10.68;;
73296;SDS011;61524;50.938;11.396;2023-01-24T08:59:18;26.58;;;10.10;;
73296;SDS011;61524;50.938;11.396;2023-01-24T09:01:43;23.83;;;11.05;;
73296;SDS011;61524;50.938;11.396;2023-01-24T09:04:10;20.08;;;9.73;;
73296;SDS011;61524;50.938;11.396;2023-01-24T09:06:36;21.48;;;9.45;;
73296;SDS011;61524;50.938;11.396;2023-01-24T09:09:01;25.77;;;10.15;;
73296;SDS011;61524;50.938;11.396;2023-01-24T09:11:29;22.98;;;11.30;;
73296;SDS011;61524;50.938;11.396;2023-01-24T09:13:54;24.80;;;10.68;;
73296;SDS011;61524;50.938;11.396;2023-01-24T09:16:20;28.25;;;10.73;;
73296;SDS011;61524;50.938;11.396;2023-01-24T09:18:45;24.85;;;10.98;;
73296;SDS011;61524;50.938;11.396;2023-01-24T09:21:11;26.08;;;11.43;;
73296;SDS011;61524;50.938;11.396;2023-01-24T09:23:36;19.85;;;10.43;;
73296;SDS011;61524;50.938;11.396;2023-01-24T09:26:02;26.70;;;11.13;;
73296;SDS011;61524;50.938;11.396;2023-01-24T09:28:28;26.48;;;11.50;;
73296;SDS011;61524;50.938;11.396;2023-01-24T09:30:54;26.20;;;12.65;;
73296;SDS011;61524;50.938;11.396;2023-01-24T09:33:19;26.60;;;11.93;;
73296;SDS011;61524;50.938;11.396;2023-01-24T09:35:52;25.13;;;11.40;;
73296;SDS011;61524;50.938;11.396;2023-01-24T09:38:22;25.90;;;11.13;;
73296;SDS011;61524;50.938;11.396;2023-01-24T09:44:00;23.90;;;11.98;;
73296;SDS011;61524;50.938;11.396;2023-01-24T09:46:37;22.83;;;10.23;;
73296;SDS011;61524;50.938;11.396;2023-01-24T09:49:54;17.08;;;8.45;;
73296;SDS011;61524;50.938;11.396;2023-01-24T09:52:09;22.00;;;9.02;;
73296;SDS011;61524;50.938;11.396;2023-01-24T09:55:22;21.77;;;9.27;;
73296;SDS011;61524;50.938;11.396;2023-01-24T10:00:44;21.92;;;9.60;;
73296;SDS011;61524;50.938;11.396;2023-01-24T10:03:43;21.10;;;9.07;;
73296;SDS011;61524;50.938;11.396;2023-01-24T10:06:07;22.65;;;10.18;;
73296;SDS011;61524;50.938;11.396;2023-01-24T10:08:47;22.98;;;10.00;;
73296;SDS011;61524;50.938;11.396;2023-01-24T10:14:26;22.38;;;10.00;;
73296;SDS011;61524;50.938;11.396;2023-01-24T10:20:03;21.38;;;9.20;;
73296;SDS011;61524;50.938;11.396;2023-01-24T10:25:27;30.73;;;14.05;;
73296;SDS011;61524;50.938;11.396;2023-01-24T10:28:03;28.27;;;11.52;;
73296;SDS011;61524;50.938;11.396;2023-01-24T10:33:17;25.77;;;12.13;;
73296;SDS011;61524;50.938;11.396;2023-01-24T10:35:57;26.85;;;12.57;;
73296;SDS011;61524;50.938;11.396;2023-01-24T10:38:26;24.52;;;10.32;;
73296;SDS011;61524;50.938;11.396;2023-01-24T10:40:58;27.42;;;10.73;;
73296;SDS011;61524;50.938;11.396;2023-01-24T10:43:46;22.42;;;9.77;;
73296;SDS011;61524;50.938;11.396;2023-01-24T10:46:29;24.88;;;11.98;;
73296;SDS011;61524;50.938;11.396;2023-01-24T10:49:07;29.83;;;10.55;;
73296;SDS011;61524;50.938;11.396;2023-01-24T10:51:39;23.77;;;10.20;;
73296;SDS011;61524;50.938;11.396;2023-01-24T10:54:05;25.48;;;11.52;;
73296;SDS011;61524;50.938;11.396;2023-01-24T10:56:45;27.73;;;10.90;;
73296;SDS011;61524;50.938;11.396;2023-01-24T10:59:11;28.45;;;12.93;;
73296;SDS011;61524;50.938;11.396;2023-01-24T11:01:43;23.75;;;11.85;;
73296;SDS011;61524;50.938;11.396;2023-01-24T11:04:13;23.85;;;10.85;;
73296;SDS011;61524;50.938;11.396;2023-01-24T11:06:53;27.45;;;11.63;;
73296;SDS011;61524;50.938;11.396;2023-01-24T11:09:20;28.08;;;12.10;;
73296;SDS011;61524;50.938;11.396;2023-01-24T11:11:51;28.92;;;11.45;;
73296;SDS011;61524;50.938;11.396;2023-01-24T11:14:23;27.73;;;12.90;;
73296;SDS011;61524;50.938;11.396;2023-01-24T11:16:54;29.35;;;11.60;;
73296;SDS011;61524;50.938;11.396;2023-01-24T11:19:29;24.17;;;11.80;;
73296;SDS011;61524;50.938;11.396;2023-01-24T11:21:55;27.40;;;11.98;;
73296;SDS011;61524;50.938;11.396;2023-01-24T11:24:23;22.67;;;10.98;;
73296;SDS011;61524;50.938;11.396;2023-01-24T11:26:53;25.30;;;12.43;;
73296;SDS011;61524;50.938;11.396;2023-01-24T11:29:21;20.75;;;11.50;;
73296;SDS011;61524;50.938;11.396;2023-01-24T11:31:51;24.52;;;10.13;;
73296;SDS011;61524;50.938;11.396;2023-01-24T11:37:04;29.63;;;10.77;;
73296;SDS011;61524;50.938;11.396;2023-01-24T11:56:33;28.88;;;11.27;;
73296;SDS011;61524;50.938;11.396;2023-01-24T12:01:45;32.45;;;12.82;;
73296;SDS011;61524;50.938;11.396;2023-01-24T12:04:16;27.90;;;13.88;;
73296;SDS011;61524;50.938;11.396;2023-01-24T12:09:42;30.23;;;13.30;;
73296;SDS011;61524;50.938;11.396;2023-01-24T12:14:46;30.35;;;12.85;;
73296;SDS011;61524;50.938;11.396;2023-01-24T12:22:39;26.23;;;13.02;;
73296;SDS011;61524;50.938;11.396;2023-01-24T12:25:22;23.30;;;11.10;;
73296;SDS011;61524;50.938;11.396;2023-01-24T12:27:55;24.98;;;11.15;;
73296;SDS011;61524;50.938;11.396;2023-01-24T12:30:33;30.70;;;12.57;;
73296;SDS011;61524;50.938;11.396;2023-01-24T12:33:08;26.98;;;11.25;;
73296;SDS011;61524;50.938;11.396;2023-01-24T12:35:42;32.40;;;11.90;;
73296;SDS011;61524;50.938;11.396;2023-01-24T12:46:38;24.60;;;11.10;;
73296;SDS011;61524;50.938;11.396;2023-01-24T12:52:03;30.35;;;12.40;;
73296;SDS011;61524;50.938;11.396;2023-01-24T12:57:44;30.42;;;12.15;;
73296;SDS011;61524;50.938;11.396;2023-01-24T13:11:30;21.08;;;9.80;;
73296;SDS011;61524;50.938;11.396;2023-01-24T13:19:44;27.00;;;10.45;;
73296;SDS011;61524;50.938;11.396;2023-01-24T13:22:26;20.67;;;8.48;;
73296;SDS011;61524;50.938;11.396;2023-01-24T13:31:36;25.05;;;11.73;;
73296;SDS011;61524;50.938;11.396;2023-01-24T13:34:15;22.95;;;11.15;;
73296;SDS011;61524;50.938;11.396;2023-01-24T13:36:46;28.67;;;13.60;;
73296;SDS011;61524;50.938;11.396;2023-01-24T13:42:05;24.23;;;9.75;;
73296;SDS011;61524;50.938;11.396;2023-01-24T13:44:44;23.95;;;11.40;;
73296;SDS011;61524;50.938;11.396;2023-01-24T13:54:57;28.90;;;13.15;;
73296;SDS011;61524;50.938;11.396;2023-01-24T13:57:28;26.55;;;12.18;;
73296;SDS011;61524;50.938;11.396;2023-01-24T14:00:17;28.25;;;12.02;;
73296;SDS011;61524;50.938;11.396;2023-01-24T14:07:54;26.92;;;11.85;;
73296;SDS011;61524;50.938;11.396;2023-01-24T14:13:09;26.40;;;13.25;;
73296;SDS011;61524;50.938;11.396;2023-01-24T14:21:22;26.60;;;10.45;;
73296;SDS011;61524;50.938;11.396;2023-01-24T14:24:10;23.70;;;9.68;;
73296;SDS011;61524;50.938;11.396;2023-01-24T14:26:52;22.30;;;10.23;;
73296;SDS011;61524;50.938;11.396;2023-01-24T14:29:19;25.25;;;10.45;;
73296;SDS011;61524;50.938;11.396;2023-01-24T14:31:48;23.27;;;10.02;;
73296;SDS011;61524;50.938;11.396;2023-01-24T14:37:07;20.88;;;9.77;;
73296;SDS011;61524;50.938;11.396;2023-01-24T14:39:34;26.85;;;10.70;;
73296;SDS011;61524;50.938;11.396;2023-01-24T14:42:00;27.13;;;10.65;;
73296;SDS011;61524;50.938;11.396;2023-01-24T14:46:59;25.02;;;10.32;;
73296;SDS011;61524;50.938;11.396;2023-01-24T14:49:43;25.23;;;11.68;;
73296;SDS011;61524;50.938;11.396;2023-01-24T14:52:26;21.90;;;9.75;;
73296;SDS011;61524;50.938;11.396;2023-01-24T14:54:54;24.23;;;10.40;;
73296;SDS011;61524;50.938;11.396;2023-01-24T15:02:28;26.70;;;11.13;;
73296;SDS011;61524;50.938;11.396;2023-01-24T15:04:53;30.60;;;10.90;;
73296;SDS011;61524;50.938;11.396;2023-01-24T15:07:19;27.02;;;10.98;;
73296;SDS011;61524;50.938;11.396;2023-01-24T15:12:13;22.52;;;9.43;;
73296;SDS011;61524;50.938;11.396;2023-01-24T15:14:45;28.60;;;11.55;;
73296;SDS011;61524;50.938;11.396;2023-01-24T15:17:16;27.23;;;11.95;;
73296;SDS011;61524;50.938;11.396;2023-01-24T15:19:47;17.13;;;7.70;;
73296;SDS011;61524;50.938;11.396;2023-01-24T15:22:21;26.48;;;9.88;;
73296;SDS011;61524;50.938;11.396;2023-01-24T15:24:58;22.15;;;9.73;;
73296;SDS011;61524;50.938;11.396;2023-01-24T15:30:13;23.85;;;10.07;;
73296;SDS011;61524;50.938;11.396;2023-01-24T15:49:03;20.95;;;9.98;;
73296;SDS011;61524;50.938;11.396;2023-01-24T15:51:40;19.17;;;8.55;;
73296;SDS011;61524;50.938;11.396;2023-01-24T15:56:37;18.42;;;8.13;;
73296;SDS011;61524;50.938;11.396;2023-01-24T15:59:08;22.70;;;8.88;;
73296;SDS011;61524;50.938;11.396;2023-01-24T16:01:40;17.70;;;8.02;;
73296;SDS011;61524;50.938;11.396;2023-01-24T16:04:16;19.55;;;8.70;;
73296;SDS011;61524;50.938;11.396;2023-01-24T16:06:43;16.70;;;8.80;;
73296;SDS011;61524;50.938;11.396;2023-01-24T16:09:09;20.90;;;7.75;;
73296;SDS011;61524;50.938;11.396;2023-01-24T16:11:35;17.65;;;8.32;;
73296;SDS011;61524;50.938;11.396;2023-01-24T16:14:02;15.82;;;7.72;;
73296;SDS011;61524;50.938;11.396;2023-01-24T16:16:28;17.02;;;7.65;;
73296;SDS011;61524;50.938;11.396;2023-01-24T16:18:54;21.42;;;8.55;;
73296;SDS011;61524;50.938;11.396;2023-01-24T16:21:20;18.77;;;8.18;;
73296;SDS011;61524;50.938;11.396;2023-01-24T16:23:45;15.40;;;7.15;;
73296;SDS011;61524;50.938;11.396;2023-01-24T16:26:16;19.60;;;8.77;;
73296;SDS011;61524;50.938;11.396;2023-01-24T16:28:46;17.77;;;7.50;;
73296;SDS011;61524;50.938;11.396;2023-01-24T16:31:11;15.48;;;6.40;;
73296;SDS011;61524;50.938;11.396;2023-01-24T16:33:37;27.92;;;13.77;;
73296;SDS011;61524;50.938;11.396;2023-01-24T16:36:02;18.50;;;9.15;;
73296;SDS011;61524;50.938;11.396;2023-01-24T16:38:28;21.90;;;7.43;;
73296;SDS011;61524;50.938;11.396;2023-01-24T16:40:53;14.95;;;7.00;;
73296;SDS011;61524;50.938;11.396;2023-01-24T16:43:22;16.35;;;7.03;;
73296;SDS011;61524;50.938;11.396;2023-01-24T16:45:49;16.98;;;8.00;;
73296;SDS011;61524;50.938;11.396;2023-01-24T16:48:16;15.00;;;7.10;;
73296;SDS011;61524;50.938;11.396;2023-01-24T16:50:42;19.92;;;7.88;;
73296;SDS011;61524;50.938;11.396;2023-01-24T16:53:09;18.10;;;7.88;;
73296;SDS011;61524;50.938;11.396;2023-01-24T16:55:35;17.40;;;7.05;;
73296;SDS011;61524;50.938;11.396;2023-01-24T16:58:07;16.25;;;8.27;;
73296;SDS011;61524;50.938;11.396;2023-01-24T17:00:34;15.23;;;8.57;;
73296;SDS011;61524;50.938;11.396;2023-01-24T17:03:00;14.98;;;6.97;;
73296;SDS011;61524;50.938;11.396;2023-01-24T17:05:27;17.40;;;7.50;;
73296;SDS011;61524;50.938;11.396;2023-01-24T17:07:54;12.10;;;5.53;;
73296;SDS011;61524;50.938;11.396;2023-01-24T17:10:20;14.90;;;6.80;;
73296;SDS011;61524;50.938;11.396;2023-01-24T17:12:45;18.17;;;6.68;;
73296;SDS011;61524;50.938;11.396;2023-01-24T17:15:11;20.60;;;7.30;;